• Join FlightAware (Why Join?)
  • Login
  • US Flag 
11:38PM EDT


 

Airport Tracker/Info


-or-


 

Live Flight TrackerFlight Track Log ✈ ASQ4283 ✈ 07-Jul-2013 ✈ KTYS - KORD

Flight Track Log - Related Links

Times and Time Zones

All times are in EDT time to prevent confusion due to time zone crossing. See the ASQ4283 flight status page for this flight to view local times or setup timezone preferences in your user account.

Time Position Orientation Groundspeed Altitude Reporting Facility
EDT Latitude Longitude Course Direction KTS MPH feet Rate Location/Type
06:12AM 35.7789 -84.0950 349° North 181 208 4,700  Level Atlanta Center
06:13AM 35.8414 -84.1131 347° North 157 181 7,100 2,100 Climbing Atlanta Center
06:14AM 36.1077 -83.9352 349° North  Level FlightAware Approximate
06:14AM 35.9081 -84.1183 356° North 194 223 8,900  Level Atlanta Center
06:15AM 36.1915 -83.9583 345° North  Level FlightAware Approximate
06:15AM 35.9811 -84.1336 350° North 226 260 10,600  Level Atlanta Center
06:16AM 36.2745 -83.9859 345° North  Level FlightAware Approximate
06:17AM 36.3581 -84.0103 349° North  Level FlightAware Approximate
06:17AM 36.1422 -84.1528 355° North 294 338 14,100  Level Indianapolis Center
06:18AM 36.2258 -84.1653 353° North 302 348 15,400 1,140 Climbing Indianapolis Center
06:19AM 36.3161 -84.1772 354° North 319 367 16,500 1,080 Climbing Indianapolis Center
06:20AM 36.4100 -84.1917 353° North 335 386 17,600 900 Climbing Indianapolis Center
06:21AM 36.5181 -84.2058 354° North 350 403 18,400 840 Climbing Indianapolis Center
06:22AM 36.6217 -84.2211 353° North 366 421 19,400 960 Climbing Indianapolis Center
06:23AM 36.7281 -84.2364 353° North 379 436 20,400 1,020 Climbing Indianapolis Center
06:24AM 36.8383 -84.2528 353° North 392 451 21,500 960 Climbing Indianapolis Center
06:25AM 36.9489 -84.2689 353° North 397 457 22,400 900 Climbing Indianapolis Center
06:26AM 37.0639 -84.2856 353° North 409 471 23,400 960 Climbing Indianapolis Center
06:27AM 37.1792 -84.3019 354° North 414 476 24,400 960 Climbing Indianapolis Center
06:28AM 37.2936 -84.3194 353° North 414 476 25,400 960 Climbing Indianapolis Center
06:29AM 37.4117 -84.3378 353° North 422 486 26,400 960 Climbing Indianapolis Center
06:30AM 37.5306 -84.3542 354° North 427 491 27,400 960 Climbing Indianapolis Center
06:31AM 37.6519 -84.3700 354° North 436 502 28,400 900 Climbing Indianapolis Center
06:32AM 37.7700 -84.3942 351° North 430 495 29,300 900 Climbing Indianapolis Center
06:33AM 37.8772 -84.4458 339° North 413 475 30,300 960 Climbing Indianapolis Center
06:34AM 37.9883 -84.4956 341° North 421 484 31,300 900 Climbing Indianapolis Center
06:35AM 38.0958 -84.5489 339° North 416 479 32,200 720 Climbing Indianapolis Center
06:36AM 38.2131 -84.5978 342° North 436 502 32,800 540 Climbing Indianapolis Center
06:37AM 38.3306 -84.6517 340° North 446 513 33,400 540 Climbing Indianapolis Center
06:38AM 38.4500 -84.7075 340° North 455 524 34,000 240 Climbing Indianapolis Center
06:39AM 38.5747 -84.7639 341° North 470 541 34,000  Level Indianapolis Center
06:40AM 38.7072 -84.8278 339° North 499 574 34,000  Level Indianapolis Center
06:41AM 38.8408 -84.8906 340° North 509 586 34,000  Level Indianapolis Center
06:42AM 38.9781 -84.9533 340° North 523 602 34,000  Level Indianapolis Center
06:43AM 39.1136 -85.0172 340° North 521 600 34,000 -420 Level Indianapolis Center
06:44AM 39.2483 -85.0800 340° North 519 597 33,200 -1,740 Descending Indianapolis Center
06:45AM 39.3844 -85.1444 340° North 522 601 30,600 -2,580 Descending Indianapolis Center
06:46AM 39.5156 -85.2072 340° North 512 589 28,100 -1,320 Descending Indianapolis Center
06:47AM 39.6447 -85.2683 340° North 501 577 28,000 -60 Descending Indianapolis Center
06:48AM 39.7742 -85.3300 340° North 500 575 28,000 -600 Level Indianapolis Center
06:49AM 39.9286 -85.4053 340° North 499 574 26,800 -1,020 Descending Indianapolis Center
06:50AM 40.0575 -85.4669 340° North 498 573 26,000 -420 Descending Indianapolis Center
06:51AM 40.1811 -85.5267 340° North 483 556 26,000  Level Indianapolis Center
06:52AM 40.3056 -85.5875 340° North 481 554 26,000  Level Indianapolis Center
06:53AM 40.3806 -85.6228 340° North 483 556 26,000  Level Chicago Center
06:54AM 40.4800 -85.7322 320° Northwest 479 551 26,000 -120 Level Chicago Center
06:55AM 40.5642 -85.8656 310° West 480 552 25,800 -720 Descending Chicago Center
06:56AM 40.6461 -85.9986 309° West 475 547 24,600 -1,200 Descending Chicago Center
06:57AM 40.7281 -86.1347 308° West 470 541 23,500 -1,200 Descending Chicago Center
06:58AM 40.8100 -86.2683 309° West 469 540 22,300 -1,200 Descending Chicago Center
06:59AM 40.8892 -86.3989 309° West 457 526 21,200 -1,140 Descending Chicago Center
07:00AM 40.9622 -86.5208 308° West 427 491 20,000 -1,140 Descending Chicago Center
07:01AM 41.0367 -86.6425 309° West 425 489 18,900 -1,200 Descending Chicago Center
07:02AM 41.1122 -86.7686 309° West 425 489 17,700 -1,380 Descending Chicago Center
07:03AM 41.1836 -86.8881 308° West 418 481 16,200 -1,800 Descending Chicago Center
07:04AM 41.2506 -87.0008 308° West 397 457 14,100 -2,100 Descending Chicago Center
07:05AM 41.3161 -87.1111 308° West 387 445 12,000 -1,680 Descending Chicago Center
07:06AM 41.3917 -87.2253 311° West 354 407 10,800 -1,020 Descending Chicago Center
07:07AM 41.4600 -87.3075 318° Northwest 336 387 10,000 -420 Descending Chicago Center
07:08AM 41.5297 -87.3894 319° Northwest 334 384 10,000  Level Chicago Center
07:09AM 41.6028 -87.4689 321° Northwest 342 394 10,000  Level Chicago Center
07:10AM 41.6753 -87.5503 320° Northwest 345 397 10,000  Level Chicago Center
07:11AM 41.7467 -87.6314 320° Northwest 342 394 10,000 -540 Level Chicago Center
07:12AM 41.8128 -87.6928 325° Northwest 290 334 9,000 -1,380 Descending Chicago Center
07:13AM 41.8833 -87.7058 352° North 266 306 7,300 -1,020 Descending Chicago Center
07:14AM 41.9589 -87.7050 360° North 270 311 7,000 -1,080 Descending Chicago Center
07:15AM 42.0222 -87.7031 North 238 274 5,200 -1,680 Descending Chicago Center
07:16AM 42.0747 -87.7567 323° Northwest 215 247 3,600 -1,620 Descending Chicago Center